createdAt,value
2023-03-30T00:00:13.493Z,1005.33
2023-03-30T00:01:13.674Z,1005.34
2023-03-30T00:02:13.890Z,1005.36
2023-03-30T00:03:14.205Z,1005.35
2023-03-30T00:04:14.502Z,1005.33
2023-03-30T00:05:14.670Z,1005.37
2023-03-30T00:06:14.833Z,1005.37
2023-03-30T00:07:15.016Z,1005.36
2023-03-30T00:08:15.207Z,1005.38
2023-03-30T00:09:15.513Z,1005.40
2023-03-30T00:10:15.710Z,1005.35
2023-03-30T00:11:15.895Z,1005.36
2023-03-30T00:12:16.094Z,1005.34
2023-03-30T00:13:16.283Z,1005.34
2023-03-30T00:14:16.473Z,1005.33
2023-03-30T00:15:16.796Z,1005.29
2023-03-30T00:16:17.011Z,1005.31
2023-03-30T00:17:17.274Z,1005.25
2023-03-30T00:18:17.454Z,1005.25
2023-03-30T00:19:17.767Z,1005.21
2023-03-30T00:20:18.007Z,1005.18
2023-03-30T00:21:18.561Z,1005.22
2023-03-30T00:22:18.456Z,1005.18
2023-03-30T00:23:18.750Z,1005.20
2023-03-30T00:24:19.041Z,1005.19
2023-03-30T00:25:19.373Z,1005.15
2023-03-30T00:26:19.588Z,1005.17
2023-03-30T00:27:19.777Z,1005.13
2023-03-30T00:28:19.993Z,1005.12
2023-03-30T00:29:20.190Z,1005.10
2023-03-30T00:30:20.385Z,1005.09
2023-03-30T00:31:20.742Z,1005.05
2023-03-30T00:32:20.969Z,1005.06
2023-03-30T00:33:30.373Z,1005.01
2023-03-30T00:34:22.459Z,1005.04
2023-03-30T00:35:21.772Z,1005.03
2023-03-30T00:36:22.014Z,1005.02
2023-03-30T00:37:22.174Z,1005.03
2023-03-30T00:38:22.359Z,1004.98
2023-03-30T00:39:22.674Z,1004.98
2023-03-30T00:40:22.876Z,1004.94
2023-03-30T00:41:23.074Z,1004.89
2023-03-30T00:42:23.257Z,1004.89
2023-03-30T00:43:23.570Z,1004.90
2023-03-30T00:44:23.752Z,1004.93
2023-03-30T00:45:24.075Z,1004.87
2023-03-30T00:46:24.302Z,1004.88
2023-03-30T00:47:24.501Z,1004.85
2023-03-30T00:48:24.682Z,1004.81
2023-03-30T00:49:24.993Z,1004.78
2023-03-30T00:50:25.203Z,1004.75
2023-03-30T00:51:25.403Z,1004.74
2023-03-30T00:52:25.604Z,1004.67
2023-03-30T00:53:25.881Z,1004.61
2023-03-30T00:54:26.166Z,1004.65
2023-03-30T00:55:26.476Z,1004.64
2023-03-30T00:56:26.678Z,1004.62
2023-03-30T00:57:27.007Z,1004.56
2023-03-30T00:58:27.161Z,1004.56
2023-03-30T00:59:27.478Z,1004.56
2023-03-30T01:00:27.692Z,1004.54
2023-03-30T01:01:27.924Z,1004.55
2023-03-30T01:02:28.187Z,1004.48
2023-03-30T01:03:28.452Z,1004.46
2023-03-30T01:04:28.608Z,1004.41
2023-03-30T01:05:29.113Z,1004.37
2023-03-30T01:06:29.112Z,1004.34
2023-03-30T01:07:29.444Z,1004.37
2023-03-30T01:08:29.628Z,1004.34
2023-03-30T01:09:29.933Z,1004.32
2023-03-30T01:10:30.139Z,1004.30
2023-03-30T01:11:30.335Z,1004.26
2023-03-30T01:12:30.529Z,1004.24
2023-03-30T01:13:30.865Z,1004.25
2023-03-30T01:14:31.046Z,1004.22
2023-03-30T01:15:31.407Z,1004.20
2023-03-30T01:16:31.564Z,1004.20
2023-03-30T01:17:31.919Z,1004.20
2023-03-30T01:18:32.070Z,1004.18
2023-03-30T01:19:32.384Z,1004.12
2023-03-30T01:20:32.590Z,1004.12
2023-03-30T01:21:32.795Z,1004.05
2023-03-30T01:22:32.999Z,1004.07
2023-03-30T01:23:33.298Z,1004.03
2023-03-30T01:24:33.477Z,1003.99
2023-03-30T01:25:33.808Z,1003.97
2023-03-30T01:26:33.988Z,1003.93
2023-03-30T01:27:34.298Z,1003.95
2023-03-30T01:28:34.491Z,1003.94
2023-03-30T01:29:34.764Z,1003.92
2023-03-30T01:30:34.966Z,1003.91
2023-03-30T01:31:35.296Z,1003.95
2023-03-30T01:32:35.420Z,1003.95
2023-03-30T01:33:35.713Z,1003.98
2023-03-30T01:34:35.910Z,1003.97
2023-03-30T01:35:36.256Z,1003.94
2023-03-30T01:36:36.405Z,1003.97
2023-03-30T01:37:36.599Z,1003.99
2023-03-30T01:38:36.900Z,1003.91
2023-03-30T01:39:37.204Z,1003.93
2023-03-30T01:40:37.524Z,1003.86
2023-03-30T01:41:37.719Z,1003.82
2023-03-30T01:42:37.914Z,1003.82
2023-03-30T01:43:38.229Z,1003.75
2023-03-30T01:44:38.425Z,1003.73
2023-03-30T01:45:38.636Z,1003.68
2023-03-30T01:46:38.869Z,1003.59
2023-03-30T01:47:39.064Z,1003.60
2023-03-30T01:48:39.339Z,1003.59
2023-03-30T01:49:39.643Z,1003.62
2023-03-30T01:50:39.977Z,1003.64
2023-03-30T01:51:40.171Z,1003.62
2023-03-30T01:52:40.491Z,1003.60
2023-03-30T01:53:40.689Z,1003.59
2023-03-30T01:54:41.000Z,1003.59
2023-03-30T01:55:41.301Z,1003.56
2023-03-30T01:56:41.526Z,1003.57
2023-03-30T01:57:41.805Z,1003.61
2023-03-30T01:58:42.125Z,1003.57
2023-03-30T01:59:42.329Z,1003.61
2023-03-30T02:00:42.680Z,1003.64
2023-03-30T02:01:42.899Z,1003.67
2023-03-30T02:02:43.155Z,1003.72
2023-03-30T02:03:43.366Z,1003.76
2023-03-30T02:04:43.586Z,1003.76
2023-03-30T02:05:43.804Z,1003.75
2023-03-30T02:06:44.022Z,1003.77
2023-03-30T02:07:44.227Z,1003.76
2023-03-30T02:08:44.443Z,1003.74
2023-03-30T02:09:44.753Z,1003.67
2023-03-30T02:10:44.996Z,1003.64
2023-03-30T02:11:45.195Z,1003.58
2023-03-30T02:12:45.504Z,1003.54
2023-03-30T02:13:45.798Z,1003.57
2023-03-30T02:14:46.116Z,1003.56
2023-03-30T02:15:46.364Z,1003.54
2023-03-30T02:16:46.620Z,1003.61
2023-03-30T02:17:46.797Z,1003.58
2023-03-30T02:18:47.086Z,1003.56
2023-03-30T02:19:47.290Z,1003.59
2023-03-30T02:20:47.652Z,1003.55
2023-03-30T02:21:47.873Z,1003.52
2023-03-30T02:22:48.192Z,1003.49
2023-03-30T02:23:48.396Z,1003.51
2023-03-30T02:24:48.585Z,1003.42
2023-03-30T02:25:48.793Z,1003.44
2023-03-30T02:26:49.004Z,1003.39
2023-03-30T02:27:49.193Z,1003.37
2023-03-30T02:28:49.520Z,1003.33
2023-03-30T02:29:49.696Z,1003.29
2023-03-30T02:30:50.017Z,1003.25
2023-03-30T02:31:50.260Z,1003.22
2023-03-30T02:32:50.500Z,1003.20
2023-03-30T02:33:50.683Z,1003.21
2023-03-30T02:34:50.995Z,1003.24
2023-03-30T02:35:51.231Z,1003.28
2023-03-30T02:36:51.415Z,1003.25
2023-03-30T02:37:51.611Z,1003.28
2023-03-30T02:38:51.931Z,1003.23
2023-03-30T02:39:52.158Z,1003.20
2023-03-30T02:40:52.371Z,1003.19
2023-03-30T02:41:52.584Z,1003.15
2023-03-30T02:42:52.780Z,1003.04
2023-03-30T02:43:52.979Z,1003.07
2023-03-30T02:44:53.294Z,1003.00
2023-03-30T02:45:53.551Z,1003.00
2023-03-30T02:46:53.725Z,1002.94
2023-03-30T02:47:53.933Z,1002.95
2023-03-30T02:48:54.232Z,1002.92
2023-03-30T02:49:54.437Z,1002.96
2023-03-30T02:50:54.752Z,1002.92
2023-03-30T02:51:54.945Z,1002.95
2023-03-30T02:52:55.280Z,1002.94
2023-03-30T02:53:55.449Z,1002.92
2023-03-30T02:54:55.675Z,1002.92
2023-03-30T02:55:55.870Z,1002.91
2023-03-30T02:56:56.091Z,1002.92
2023-03-30T02:57:56.284Z,1002.90
2023-03-30T02:58:56.601Z,1002.89
2023-03-30T02:59:56.774Z,1002.93
2023-03-30T03:00:59.368Z,1002.91
2023-03-30T03:01:57.302Z,1002.88
2023-03-30T03:02:57.780Z,1002.84
2023-03-30T03:03:57.857Z,1002.78
2023-03-30T03:04:58.047Z,1002.78
2023-03-30T03:05:58.368Z,1002.75
2023-03-30T03:06:58.563Z,1002.72
2023-03-30T03:07:58.746Z,1002.69
2023-03-30T03:08:59.068Z,1002.69
2023-03-30T03:09:59.263Z,1002.66
2023-03-30T03:10:59.479Z,1002.65
2023-03-30T03:11:59.669Z,1002.59
2023-03-30T03:12:59.967Z,1002.65
2023-03-30T03:14:00.178Z,1002.65
2023-03-30T03:15:00.451Z,1002.64
2023-03-30T03:16:02.891Z,1002.63
2023-03-30T03:17:00.947Z,1002.67
2023-03-30T03:18:01.196Z,1002.65
2023-03-30T03:19:01.355Z,1002.68
2023-03-30T03:20:01.567Z,1002.68
2023-03-30T03:21:02.170Z,1002.68
2023-03-30T03:22:02.143Z,1002.67
2023-03-30T03:23:02.468Z,1002.64
2023-03-30T03:24:02.659Z,1002.67
2023-03-30T03:25:02.970Z,1002.58
2023-03-30T03:26:03.193Z,1002.53
2023-03-30T03:27:03.363Z,1002.49
2023-03-30T03:28:03.568Z,1002.50
2023-03-30T03:29:03.760Z,1002.46
2023-03-30T03:30:03.956Z,1002.47
2023-03-30T03:31:04.500Z,1002.45
2023-03-30T03:32:04.501Z,1002.49
2023-03-30T03:33:05.007Z,1002.44
2023-03-30T03:34:04.894Z,1002.45
2023-03-30T03:35:05.114Z,1002.45
2023-03-30T03:36:05.374Z,1002.47
2023-03-30T03:37:05.545Z,1002.42
2023-03-30T03:38:05.719Z,1002.43
2023-03-30T03:39:06.042Z,1002.37
2023-03-30T03:40:06.241Z,1002.38
2023-03-30T03:41:06.619Z,1002.34
2023-03-30T03:42:06.640Z,1002.33
2023-03-30T03:43:06.950Z,1002.30
2023-03-30T03:44:07.137Z,1002.31
2023-03-30T03:45:07.457Z,1002.30
2023-03-30T03:46:07.730Z,1002.27
2023-03-30T03:47:07.877Z,1002.29
2023-03-30T03:48:08.122Z,1002.23
2023-03-30T03:49:08.334Z,1002.24
2023-03-30T03:50:08.528Z,1002.17
2023-03-30T03:51:08.765Z,1002.17
2023-03-30T03:52:09.478Z,1002.12
2023-03-30T03:53:09.216Z,1002.11
2023-03-30T03:54:09.410Z,1002.08
2023-03-30T03:55:09.720Z,1002.06
2023-03-30T03:56:09.914Z,1002.06
2023-03-30T03:57:10.265Z,1002.01
2023-03-30T03:58:10.341Z,1002.02
2023-03-30T03:59:10.660Z,1002.08
2023-03-30T04:00:10.865Z,1002.05
2023-03-30T04:01:11.222Z,1002.02
2023-03-30T04:02:11.415Z,1002.02
2023-03-30T04:03:11.740Z,1001.99
2023-03-30T04:04:11.969Z,1001.99
2023-03-30T04:05:12.184Z,1001.91
2023-03-30T04:06:12.412Z,1001.92
2023-03-30T04:07:12.602Z,1001.91
2023-03-30T04:08:12.817Z,1001.85
2023-03-30T04:09:13.012Z,1001.83
2023-03-30T04:10:13.224Z,1001.76
2023-03-30T04:11:13.444Z,1001.74
2023-03-30T04:12:13.661Z,1001.71
2023-03-30T04:13:13.980Z,1001.69
2023-03-30T04:14:14.167Z,1001.69
2023-03-30T04:15:14.478Z,1001.72
2023-03-30T04:16:14.805Z,1001.72
2023-03-30T04:17:21.958Z,1001.70
2023-03-30T04:18:17.826Z,1001.72
2023-03-30T04:19:15.802Z,1001.68
2023-03-30T04:20:15.599Z,1001.66
2023-03-30T04:21:15.861Z,1001.68
2023-03-30T04:22:16.109Z,1001.64
2023-03-30T04:23:16.397Z,1001.66
2023-03-30T04:24:16.628Z,1001.63
2023-03-30T04:25:16.901Z,1001.67
2023-03-30T04:26:17.189Z,1001.67
2023-03-30T04:27:17.466Z,1001.71
2023-03-30T04:28:18.294Z,1001.71
2023-03-30T04:29:18.002Z,1001.66
2023-03-30T04:30:18.304Z,1001.70
2023-03-30T04:31:18.685Z,1001.69
2023-03-30T04:32:18.848Z,1001.64
2023-03-30T04:33:19.101Z,1001.65
2023-03-30T04:34:19.394Z,1001.62
2023-03-30T04:35:19.726Z,1001.57
2023-03-30T04:36:19.948Z,1001.57
2023-03-30T04:37:20.143Z,1001.60
2023-03-30T04:38:20.356Z,1001.62
2023-03-30T04:39:20.561Z,1001.63
2023-03-30T04:40:20.765Z,1001.60
2023-03-30T04:41:21.097Z,1001.62
2023-03-30T04:42:21.316Z,1001.58
2023-03-30T04:43:21.509Z,1001.57
2023-03-30T04:44:21.811Z,1001.51
2023-03-30T04:45:22.002Z,1001.54
2023-03-30T04:46:22.358Z,1001.53
2023-03-30T04:47:22.665Z,1001.53
2023-03-30T04:48:22.825Z,1001.51
2023-03-30T04:49:23.150Z,1001.50
2023-03-30T04:50:23.383Z,1001.52
2023-03-30T04:51:23.670Z,1001.51
2023-03-30T04:52:23.872Z,1001.50
2023-03-30T04:53:24.192Z,1001.52
2023-03-30T04:54:24.516Z,1001.51
2023-03-30T04:55:24.709Z,1001.52
2023-03-30T04:56:24.917Z,1001.55
2023-03-30T04:57:25.234Z,1001.55
2023-03-30T04:58:25.410Z,1001.54
2023-03-30T04:59:25.730Z,1001.54
2023-03-30T05:00:25.929Z,1001.52
2023-03-30T05:01:26.268Z,1001.56
2023-03-30T05:02:26.536Z,1001.51
2023-03-30T05:03:26.842Z,1001.59
2023-03-30T05:04:26.982Z,1001.50
2023-03-30T05:05:27.290Z,1001.50
2023-03-30T05:06:27.493Z,1001.53
2023-03-30T05:07:27.700Z,1001.53
2023-03-30T05:08:27.894Z,1001.52
2023-03-30T05:09:28.240Z,1001.50
2023-03-30T05:10:28.451Z,1001.45
2023-03-30T05:11:28.658Z,1001.39
2023-03-30T05:12:28.869Z,1001.33
2023-03-30T05:13:29.093Z,1001.34
2023-03-30T05:14:29.280Z,1001.28
2023-03-30T05:15:29.472Z,1001.27
2023-03-30T05:16:29.816Z,1001.24
2023-03-30T05:17:30.027Z,1001.21
2023-03-30T05:18:30.214Z,1001.13
2023-03-30T05:19:30.441Z,1001.09
2023-03-30T05:20:30.655Z,1001.04
2023-03-30T05:21:30.875Z,1001.01
2023-03-30T05:22:31.096Z,1000.99
2023-03-30T05:23:31.330Z,1000.95
2023-03-30T05:24:31.523Z,1000.93
2023-03-30T05:25:31.832Z,1000.88
2023-03-30T05:26:32.088Z,1000.84
2023-03-30T05:27:32.260Z,1000.86
2023-03-30T05:28:32.650Z,1000.87
2023-03-30T05:29:32.737Z,1000.87
2023-03-30T05:30:32.948Z,1000.82
2023-03-30T05:31:33.190Z,1000.79
2023-03-30T05:32:33.450Z,1000.87
2023-03-30T05:33:33.714Z,1000.93
2023-03-30T05:34:33.902Z,1001.01
2023-03-30T05:35:34.241Z,1000.99
2023-03-30T05:36:34.532Z,1001.05
2023-03-30T05:37:34.720Z,1001.01
2023-03-30T05:38:34.908Z,1001.03
2023-03-30T05:39:35.247Z,1001.05
2023-03-30T05:40:35.498Z,1001.10
2023-03-30T05:41:35.764Z,1001.07
2023-03-30T05:42:35.953Z,1001.08
2023-03-30T05:43:36.278Z,1001.10
2023-03-30T05:44:36.480Z,1001.01
2023-03-30T05:45:36.800Z,1000.97
2023-03-30T05:46:37.112Z,1000.95
2023-03-30T05:47:37.295Z,1000.94
2023-03-30T05:48:37.472Z,1000.92
2023-03-30T05:49:37.668Z,1000.94
2023-03-30T05:50:37.860Z,1000.90
2023-03-30T05:51:38.078Z,1000.90
2023-03-30T05:52:38.280Z,1000.85
2023-03-30T05:53:38.487Z,1000.88
2023-03-30T05:54:38.674Z,1000.91
2023-03-30T05:55:38.992Z,1000.93
2023-03-30T05:56:39.228Z,1000.96
2023-03-30T05:57:39.416Z,1000.96
2023-03-30T05:58:39.654Z,1000.97
2023-03-30T05:59:39.840Z,1000.94
2023-03-30T06:00:40.144Z,1000.90
2023-03-30T06:01:40.358Z,1000.86
2023-03-30T06:02:40.613Z,1000.85
2023-03-30T06:03:40.929Z,1000.76
2023-03-30T06:04:41.118Z,1000.68
2023-03-30T06:05:41.307Z,1000.63
2023-03-30T06:06:41.527Z,1000.65
2023-03-30T06:07:41.728Z,1000.64
2023-03-30T06:08:42.010Z,1000.63
2023-03-30T06:09:42.163Z,1000.66
2023-03-30T06:10:42.502Z,1000.61
2023-03-30T06:11:42.704Z,1000.62
2023-03-30T06:12:42.902Z,1000.63
2023-03-30T06:13:43.119Z,1000.62
2023-03-30T06:14:43.318Z,1000.65
2023-03-30T06:15:43.513Z,1000.61
2023-03-30T06:16:43.918Z,1000.59
2023-03-30T06:17:44.144Z,1000.63
2023-03-30T06:18:44.376Z,1000.67
2023-03-30T06:19:44.550Z,1000.57
2023-03-30T06:20:44.872Z,1000.54
2023-03-30T06:21:45.084Z,1000.52
2023-03-30T06:22:45.299Z,1000.50
2023-03-30T06:23:45.504Z,1000.52
2023-03-30T06:24:45.716Z,1000.43
2023-03-30T06:25:45.920Z,1000.44
2023-03-30T06:26:46.129Z,1000.46
2023-03-30T06:27:46.315Z,1000.39
2023-03-30T06:28:46.634Z,1000.35
2023-03-30T06:29:46.815Z,1000.34
2023-03-30T06:30:47.017Z,1000.37
2023-03-30T06:31:47.257Z,1000.40
2023-03-30T06:32:47.489Z,1000.38
2023-03-30T06:33:47.686Z,1000.38
2023-03-30T06:34:47.866Z,1000.41
2023-03-30T06:35:48.081Z,1000.43
2023-03-30T06:36:48.422Z,1000.40
2023-03-30T06:37:48.592Z,1000.38
2023-03-30T06:38:48.891Z,1000.37
2023-03-30T06:39:49.059Z,1000.38
2023-03-30T06:40:49.379Z,1000.43
2023-03-30T06:41:49.570Z,1000.46
2023-03-30T06:42:49.762Z,1000.43
2023-03-30T06:43:49.944Z,1000.44
2023-03-30T06:44:50.129Z,1000.45
2023-03-30T06:45:50.356Z,1000.47
2023-03-30T06:46:50.540Z,1000.46
2023-03-30T06:47:50.768Z,1000.45
2023-03-30T06:48:50.918Z,1000.39
2023-03-30T06:49:51.210Z,1000.40
2023-03-30T06:50:51.410Z,1000.37
2023-03-30T06:51:51.586Z,1000.34
2023-03-30T06:52:51.777Z,1000.35
2023-03-30T06:53:51.958Z,1000.36
2023-03-30T06:54:52.246Z,1000.33
2023-03-30T06:55:52.436Z,1000.33
2023-03-30T06:56:52.947Z,1000.29
2023-03-30T06:57:52.888Z,1000.25
2023-03-30T06:58:53.185Z,1000.28
2023-03-30T06:59:53.357Z,1000.29
2023-03-30T07:00:53.662Z,1000.30
2023-03-30T07:01:53.983Z,1000.23
2023-03-30T07:02:54.221Z,1000.21
2023-03-30T07:03:54.382Z,1000.23
2023-03-30T07:04:54.641Z,1000.28
2023-03-30T07:05:54.817Z,1000.25
2023-03-30T07:06:55.263Z,1000.24
2023-03-30T07:07:55.325Z,1000.18
2023-03-30T07:08:55.607Z,1000.11
2023-03-30T07:09:55.882Z,1000.10
2023-03-30T07:10:56.168Z,1000.03
2023-03-30T07:11:56.753Z,1000.05
2023-03-30T07:12:56.626Z,1000.05
2023-03-30T07:13:56.914Z,999.99
2023-03-30T07:14:57.098Z,1000.05
2023-03-30T07:15:58.201Z,999.96
2023-03-30T07:16:57.541Z,999.97
2023-03-30T07:17:57.711Z,999.95
2023-03-30T07:18:57.942Z,999.90
2023-03-30T07:19:58.100Z,999.95
2023-03-30T07:20:58.262Z,999.92
2023-03-30T07:21:58.434Z,1000.02
2023-03-30T07:22:58.611Z,999.91
2023-03-30T07:23:58.762Z,999.89
2023-03-30T07:24:58.911Z,999.86
2023-03-30T07:25:59.199Z,999.88
2023-03-30T07:26:59.262Z,999.86
2023-03-30T07:27:59.408Z,999.88
2023-03-30T07:28:59.551Z,999.86
2023-03-30T07:30:10.408Z,999.91
2023-03-30T07:31:00.867Z,999.82
2023-03-30T07:32:00.070Z,999.79
2023-03-30T07:33:00.362Z,999.77
2023-03-30T07:34:00.407Z,999.73
2023-03-30T07:35:03.095Z,999.67
2023-03-30T07:36:00.702Z,999.73
2023-03-30T07:37:01.292Z,999.67
2023-03-30T07:38:03.834Z,999.72
2023-03-30T07:39:01.148Z,999.71
2023-03-30T07:40:01.289Z,999.79
2023-03-30T07:41:01.547Z,999.74
2023-03-30T07:42:01.554Z,999.74
2023-03-30T07:43:01.727Z,999.67
2023-03-30T07:44:01.793Z,999.76
2023-03-30T07:45:02.047Z,999.71
2023-03-30T07:46:02.196Z,999.68
2023-03-30T07:47:02.402Z,999.70
2023-03-30T07:48:02.564Z,999.74
2023-03-30T07:49:02.660Z,999.61
2023-03-30T07:50:02.800Z,999.55
2023-03-30T07:51:03.119Z,999.55
2023-03-30T07:52:03.092Z,999.49
2023-03-30T07:53:03.206Z,999.54
2023-03-30T07:54:03.327Z,999.56
2023-03-30T07:55:03.548Z,999.56
2023-03-30T07:56:03.666Z,999.57
2023-03-30T07:57:03.993Z,999.63
2023-03-30T07:58:03.989Z,999.58
2023-03-30T07:59:04.086Z,999.50
2023-03-30T08:00:04.202Z,999.61
2023-03-30T08:01:04.498Z,999.63
2023-03-30T08:02:04.474Z,999.66
2023-03-30T08:03:04.707Z,999.63
2023-03-30T08:04:04.756Z,999.80
2023-03-30T08:05:04.937Z,999.70
2023-03-30T08:06:05.016Z,999.65
2023-03-30T08:07:05.129Z,999.61
2023-03-30T08:08:05.260Z,999.63
2023-03-30T08:09:05.373Z,999.62
2023-03-30T08:10:05.501Z,999.62
2023-03-30T08:11:05.747Z,999.61
2023-03-30T08:12:05.690Z,999.54
2023-03-30T08:13:05.803Z,999.55
2023-03-30T08:14:05.884Z,999.60
2023-03-30T08:15:05.987Z,999.42
2023-03-30T08:16:06.148Z,999.52
2023-03-30T08:17:06.274Z,999.44
2023-03-30T08:18:06.391Z,999.50
2023-03-30T08:19:06.485Z,999.52
2023-03-30T08:20:06.596Z,999.57
2023-03-30T08:21:06.926Z,999.51
2023-03-30T08:22:06.863Z,999.44
2023-03-30T08:23:06.967Z,999.47
2023-03-30T08:24:07.047Z,999.50
2023-03-30T08:25:07.150Z,999.42
2023-03-30T08:26:07.249Z,999.39
2023-03-30T08:27:07.638Z,999.30
2023-03-30T08:28:07.523Z,999.28
2023-03-30T08:29:07.630Z,999.26
2023-03-30T08:30:07.735Z,999.22
2023-03-30T08:31:08.028Z,999.21
2023-03-30T08:32:08.013Z,999.27
2023-03-30T08:33:08.085Z,999.19
2023-03-30T08:34:08.140Z,999.13
2023-03-30T08:35:08.317Z,999.12
2023-03-30T08:36:08.481Z,999.08
2023-03-30T08:37:08.562Z,999.23
2023-03-30T08:38:08.667Z,999.17
2023-03-30T08:39:08.800Z,999.10
2023-03-30T08:40:08.868Z,999.12
2023-03-30T08:41:08.991Z,999.05
2023-03-30T08:42:09.126Z,999.19
2023-03-30T08:43:09.238Z,999.12
2023-03-30T08:44:09.313Z,999.21
2023-03-30T08:45:09.397Z,999.19
2023-03-30T08:46:09.559Z,999.29
2023-03-30T08:47:09.636Z,999.22
2023-03-30T08:48:09.773Z,999.18
2023-03-30T08:49:09.859Z,999.14
2023-03-30T08:50:09.956Z,999.14
2023-03-30T08:51:10.097Z,999.13
2023-03-30T08:52:10.279Z,999.14
2023-03-30T08:53:10.394Z,999.00
2023-03-30T08:54:10.475Z,998.92
2023-03-30T08:55:10.576Z,998.95
2023-03-30T08:56:10.684Z,998.96
2023-03-30T08:57:10.842Z,998.94
2023-03-30T08:58:10.928Z,998.99
2023-03-30T08:59:11.038Z,998.99
2023-03-30T09:00:11.167Z,999.02
2023-03-30T09:01:12.292Z,999.00
2023-03-30T09:02:11.477Z,998.97
2023-03-30T09:03:11.616Z,998.91
2023-03-30T09:04:11.747Z,999.04
2023-03-30T09:05:11.902Z,999.06
2023-03-30T09:06:12.036Z,998.97
2023-03-30T09:07:12.180Z,999.03
2023-03-30T09:08:12.315Z,998.99
2023-03-30T09:09:12.429Z,998.98
2023-03-30T09:10:12.544Z,998.98
2023-03-30T09:11:12.692Z,998.94
2023-03-30T09:12:12.806Z,998.92
2023-03-30T09:13:12.924Z,998.95
2023-03-30T09:14:13.050Z,998.96
2023-03-30T09:15:13.188Z,999.03
2023-03-30T09:16:13.356Z,999.02
2023-03-30T09:17:13.493Z,998.98
2023-03-30T09:18:13.711Z,999.01
2023-03-30T09:19:13.828Z,998.99
2023-03-30T09:20:13.985Z,998.95
2023-03-30T09:21:14.148Z,998.96
2023-03-30T09:22:14.254Z,998.96
2023-03-30T09:23:14.406Z,998.95
2023-03-30T09:24:14.558Z,998.95
2023-03-30T09:25:14.681Z,998.93
2023-03-30T09:26:14.838Z,998.92
2023-03-30T09:27:14.959Z,998.92
2023-03-30T09:28:16.042Z,998.95
2023-03-30T09:29:15.280Z,998.93
2023-03-30T09:30:15.427Z,999.02
2023-03-30T09:31:16.048Z,998.93
2023-03-30T09:32:15.871Z,998.91
2023-03-30T09:33:15.992Z,998.96
2023-03-30T09:34:16.135Z,998.95
2023-03-30T09:35:16.260Z,998.97
2023-03-30T09:36:16.416Z,998.96
2023-03-30T09:37:16.639Z,998.95
2023-03-30T09:38:16.768Z,998.99
2023-03-30T09:39:16.888Z,998.99
2023-03-30T09:40:17.050Z,999.03
2023-03-30T09:41:17.187Z,999.06
2023-03-30T09:42:17.339Z,999.08
2023-03-30T09:43:17.491Z,999.04
2023-03-30T09:44:17.614Z,999.01
2023-03-30T09:45:17.858Z,999.05
2023-03-30T09:46:18.046Z,999.10
2023-03-30T09:47:18.189Z,999.15
2023-03-30T09:48:18.311Z,999.08
2023-03-30T09:49:18.558Z,999.06
2023-03-30T09:50:18.685Z,999.06
2023-03-30T09:51:18.949Z,999.09
2023-03-30T09:52:19.089Z,999.01
2023-03-30T09:53:19.240Z,999.09
2023-03-30T09:54:19.392Z,999.09
2023-03-30T09:55:19.515Z,999.03
2023-03-30T09:56:19.676Z,999.05
2023-03-30T09:57:19.831Z,999.11
2023-03-30T09:58:19.991Z,999.08
2023-03-30T09:59:20.138Z,999.04
2023-03-30T10:00:20.378Z,999.16
2023-03-30T10:01:20.552Z,999.09
2023-03-30T10:02:20.816Z,999.11
2023-03-30T10:03:21.013Z,999.10
2023-03-30T10:04:21.038Z,999.07
2023-03-30T10:05:21.166Z,999.09
2023-03-30T10:06:21.292Z,999.05
2023-03-30T10:07:21.570Z,999.12
2023-03-30T10:08:24.411Z,999.13
2023-03-30T10:09:21.971Z,999.13
2023-03-30T10:10:22.111Z,999.22
2023-03-30T10:11:22.265Z,999.19
2023-03-30T10:12:22.410Z,999.17
2023-03-30T10:13:22.550Z,999.20
2023-03-30T10:14:22.693Z,999.17
2023-03-30T10:15:22.944Z,999.10
2023-03-30T10:16:23.139Z,999.18
2023-03-30T10:17:30.301Z,999.16
2023-03-30T10:18:23.416Z,999.13
2023-03-30T10:19:23.533Z,999.12
2023-03-30T10:20:23.844Z,999.16
2023-03-30T10:21:24.011Z,999.19
2023-03-30T10:22:24.163Z,999.14
2023-03-30T10:23:24.352Z,999.17
2023-03-30T10:24:24.488Z,999.25
2023-03-30T10:25:24.619Z,999.26
2023-03-30T10:26:24.872Z,999.26
2023-03-30T10:27:25.012Z,999.18
2023-03-30T10:28:25.166Z,999.22
2023-03-30T10:29:25.306Z,999.35
2023-03-30T10:30:25.555Z,999.31
2023-03-30T10:31:27.726Z,999.29
2023-03-30T10:32:25.972Z,999.27
2023-03-30T10:33:26.072Z,999.26
2023-03-30T10:34:26.281Z,999.25
2023-03-30T10:35:26.438Z,999.20
2023-03-30T10:36:26.644Z,999.14
2023-03-30T10:37:26.805Z,999.10
2023-03-30T10:38:26.964Z,999.11
2023-03-30T10:39:27.103Z,999.10
2023-03-30T10:40:27.304Z,999.13
2023-03-30T10:41:27.424Z,999.15
2023-03-30T10:42:27.543Z,999.14
2023-03-30T10:43:27.673Z,999.13
2023-03-30T10:44:27.831Z,999.20
2023-03-30T10:45:28.015Z,999.02
2023-03-30T10:46:28.457Z,999.05
2023-03-30T10:47:28.443Z,999.00
2023-03-30T10:48:28.505Z,998.97
2023-03-30T10:49:28.669Z,999.04
2023-03-30T10:50:28.811Z,998.95
2023-03-30T10:51:28.925Z,999.02
2023-03-30T10:52:29.184Z,998.97
2023-03-30T10:53:29.344Z,998.95
2023-03-30T10:54:29.492Z,999.03
2023-03-30T10:55:29.634Z,998.95
2023-03-30T10:56:29.753Z,999.00
2023-03-30T10:57:30.112Z,999.09
2023-03-30T10:58:30.178Z,998.97
2023-03-30T10:59:30.322Z,998.94
2023-03-30T11:00:30.419Z,998.96
2023-03-30T11:01:30.721Z,998.88
2023-03-30T11:02:30.815Z,998.89
2023-03-30T11:03:31.042Z,998.97
2023-03-30T11:04:31.081Z,999.03
2023-03-30T11:05:32.738Z,998.89
2023-03-30T11:06:31.473Z,998.95
2023-03-30T11:07:31.474Z,998.88
2023-03-30T11:08:31.607Z,998.94
2023-03-30T11:09:31.728Z,998.94
2023-03-30T11:10:31.945Z,998.85
2023-03-30T11:11:32.056Z,998.86
2023-03-30T11:12:32.222Z,998.86
2023-03-30T11:13:32.356Z,998.88
2023-03-30T11:14:32.590Z,998.87
2023-03-30T11:15:32.720Z,998.84
2023-03-30T11:16:32.879Z,998.86
2023-03-30T11:17:32.992Z,998.87
2023-03-30T11:18:33.204Z,998.81
2023-03-30T11:19:33.331Z,998.85
2023-03-30T11:20:33.509Z,998.83
2023-03-30T11:21:33.634Z,998.79
2023-03-30T11:22:33.805Z,998.80
2023-03-30T11:23:33.876Z,998.83
2023-03-30T11:24:34.005Z,998.83
2023-03-30T11:25:34.155Z,998.88
2023-03-30T11:26:34.361Z,998.77
2023-03-30T11:27:34.467Z,998.84
2023-03-30T11:28:34.569Z,998.77
2023-03-30T11:29:34.673Z,998.83
2023-03-30T11:30:35.197Z,998.81
2023-03-30T11:31:35.101Z,998.82
2023-03-30T11:32:35.260Z,998.79
2023-03-30T11:33:35.364Z,998.80
2023-03-30T11:34:35.484Z,998.76
2023-03-30T11:35:35.611Z,998.81
2023-03-30T11:36:35.822Z,998.77
2023-03-30T11:37:36.043Z,998.74
2023-03-30T11:38:36.161Z,998.74
2023-03-30T11:39:36.295Z,998.79
2023-03-30T11:40:36.398Z,998.78
2023-03-30T11:41:36.524Z,998.68
2023-03-30T11:42:36.700Z,998.65
2023-03-30T11:43:36.837Z,998.75
2023-03-30T11:44:36.946Z,998.62
2023-03-30T11:45:37.062Z,998.52
2023-03-30T11:46:37.379Z,998.52
2023-03-30T11:47:37.525Z,998.69
2023-03-30T11:48:37.646Z,998.47
2023-03-30T11:49:37.770Z,998.52
2023-03-30T11:50:37.889Z,998.54
2023-03-30T11:51:38.004Z,998.53
2023-03-30T11:52:38.127Z,998.53
2023-03-30T11:53:38.407Z,998.49
2023-03-30T11:54:38.613Z,998.54
2023-03-30T11:55:38.466Z,998.50
2023-03-30T11:56:38.544Z,998.44
2023-03-30T11:57:38.655Z,998.43
2023-03-30T11:58:38.780Z,998.34
2023-03-30T11:59:38.874Z,998.42
2023-03-30T12:00:38.956Z,998.42
2023-03-30T12:01:39.031Z,998.36
2023-03-30T12:02:39.193Z,998.34
2023-03-30T12:03:39.457Z,998.35
2023-03-30T12:04:39.683Z,998.32
2023-03-30T12:05:39.438Z,998.23
2023-03-30T12:06:39.626Z,998.25
2023-03-30T12:07:39.678Z,998.27
2023-03-30T12:08:39.783Z,998.35
2023-03-30T12:09:39.841Z,998.18
2023-03-30T12:10:39.924Z,998.16
2023-03-30T12:11:40.011Z,998.18
2023-03-30T12:12:40.078Z,998.20
2023-03-30T12:13:50.639Z,998.10
2023-03-30T12:14:41.269Z,998.11
2023-03-30T12:15:40.275Z,997.98
2023-03-30T12:16:40.403Z,998.01